Time;durP1;ratioP1;P1;durP2;ratioP2;P2;SDS_P1;SDS_P2;PMS_P1;PMS_P2;Temp;Humidity;BMP_temperature;BMP_pressure;BME280_temperature;BME280_humidity;BME280_pressure;Samples;Min_cycle;Max_cycle;Signal;HPM_P1;HPM_P2
2022/07/17 00:00:20;;;;;;;2.60;1.50;;;;;;;;;;4966701;28;20062;-85
2022/07/17 00:02:47;;;;;;;4.05;1.63;;;;;;;;;;4961483;28;20069;-84
2022/07/17 00:05:13;;;;;;;4.68;1.27;;;;;;;;;;4953803;28;20205;-85
2022/07/17 00:07:39;;;;;;;5.03;1.55;;;;;;;;;;4951288;28;20126;-85
2022/07/17 00:10:05;;;;;;;1.77;1.45;;;;;;;;;;4960231;28;20618;-85
2022/07/17 00:12:30;;;;;;;4.25;1.50;;;;;;;;;;4963971;28;20039;-85
2022/07/17 00:14:56;;;;;;;2.60;1.65;;;;;;;;;;4964565;28;20533;-85
2022/07/17 00:17:21;;;;;;;3.88;1.65;;;;;;;;;;4963826;28;20118;-85
2022/07/17 00:19:46;;;;;;;3.05;1.60;;;;;;;;;;4965259;28;20038;-85
2022/07/17 00:22:12;;;;;;;2.78;1.40;;;;;;;;;;4966689;28;20134;-85
2022/07/17 00:24:37;;;;;;;2.83;1.45;;;;;;;;;;4967051;28;20446;-85
2022/07/17 00:27:03;;;;;;;4.95;1.50;;;;;;;;;;4968495;28;20521;-86
2022/07/17 00:29:28;;;;;;;4.03;1.75;;;;;;;;;;4970338;28;20042;-86
2022/07/17 00:31:53;;;;;;;3.22;1.67;;;;;;;;;;4979549;28;20035;-86
2022/07/17 00:34:19;;;;;;;4.05;1.70;;;;;;;;;;4965264;28;20069;-86
2022/07/17 00:36:44;;;;;;;4.80;1.95;;;;;;;;;;4982261;28;20030;-86
2022/07/17 00:39:10;;;;;;;2.53;1.50;;;;;;;;;;4965846;28;20086;-85
2022/07/17 00:41:35;;;;;;;2.20;1.38;;;;;;;;;;4971044;28;20038;-85
2022/07/17 00:44:06;;;;;;;2.90;1.58;;;;;;;;;;4966717;28;20026;-85
2022/07/17 00:46:31;;;;;;;3.22;1.52;;;;;;;;;;4966045;28;20034;-85
2022/07/17 00:48:57;;;;;;;4.97;1.35;;;;;;;;;;4965817;28;20042;-85
2022/07/17 00:51:22;;;;;;;1.80;1.30;;;;;;;;;;4967651;28;20481;-85
2022/07/17 00:53:49;;;;;;;2.72;1.30;;;;;;;;;;4965879;28;20066;-85
2022/07/17 00:56:17;;;;;;;2.35;1.45;;;;;;;;;;4959556;28;20039;-85
2022/07/17 00:58:43;;;;;;;2.60;1.40;;;;;;;;;;4966493;28;20130;-85
2022/07/17 01:01:09;;;;;;;4.03;1.38;;;;;;;;;;4967245;28;20097;-85
2022/07/17 01:03:34;;;;;;;3.75;1.60;;;;;;;;;;4967756;28;20744;-84
2022/07/17 01:06:00;;;;;;;4.78;1.50;;;;;;;;;;4965684;28;20737;-85
2022/07/17 01:08:26;;;;;;;5.13;1.58;;;;;;;;;;4964865;28;20063;-85
2022/07/17 01:10:51;;;;;;;3.25;1.38;;;;;;;;;;4966666;28;20033;-84
2022/07/17 01:13:18;;;;;;;1.63;1.30;;;;;;;;;;4966517;28;20038;-84
2022/07/17 01:15:44;;;;;;;3.00;1.50;;;;;;;;;;4963905;28;20063;-83
2022/07/17 01:18:11;;;;;;;4.75;1.55;;;;;;;;;;4966999;28;20506;-84
2022/07/17 01:20:39;;;;;;;3.75;2.00;;;;;;;;;;4980128;28;20515;-84
2022/07/17 01:23:04;;;;;;;2.70;1.90;;;;;;;;;;4961886;28;20042;-84
2022/07/17 01:25:30;;;;;;;3.08;1.90;;;;;;;;;;4964643;28;20042;-84
2022/07/17 01:27:56;;;;;;;2.65;1.70;;;;;;;;;;4966025;28;20046;-84
2022/07/17 01:30:21;;;;;;;5.97;1.90;;;;;;;;;;4967850;28;20062;-84
2022/07/17 01:32:46;;;;;;;2.45;1.85;;;;;;;;;;4965293;28;20042;-84
2022/07/17 01:35:14;;;;;;;3.38;1.83;;;;;;;;;;4968364;28;20045;-84
2022/07/17 01:37:40;;;;;;;2.88;1.85;;;;;;;;;;4981161;28;20035;-84
2022/07/17 01:40:07;;;;;;;3.85;1.73;;;;;;;;;;4967171;28;20482;-85
2022/07/17 01:42:33;;;;;;;3.25;1.80;;;;;;;;;;4960635;28;20031;-85
2022/07/17 01:44:58;;;;;;;3.15;1.40;;;;;;;;;;4982569;28;20611;-85
2022/07/17 01:47:24;;;;;;;2.25;1.63;;;;;;;;;;4987764;28;20050;-84
2022/07/17 01:49:52;;;;;;;3.30;1.65;;;;;;;;;;4973364;28;20035;-85
2022/07/17 01:52:18;;;;;;;3.20;2.03;;;;;;;;;;4969890;28;20031;-85
2022/07/17 01:54:43;;;;;;;1.70;1.58;;;;;;;;;;4969090;28;20062;-85
2022/07/17 01:57:09;;;;;;;3.10;1.95;;;;;;;;;;4967100;28;20025;-85
2022/07/17 01:59:36;;;;;;;2.15;1.50;;;;;;;;;;4962399;28;20039;-86
2022/07/17 02:02:01;;;;;;;4.25;1.67;;;;;;;;;;4966708;28;20097;-86
2022/07/17 02:04:26;;;;;;;2.60;1.70;;;;;;;;;;4966170;28;20039;-85
2022/07/17 02:06:55;;;;;;;4.97;1.65;;;;;;;;;;4966571;28;20048;-85
2022/07/17 02:09:21;;;;;;;3.55;1.75;;;;;;;;;;4967193;28;20557;-85
2022/07/17 02:11:47;;;;;;;3.85;1.60;;;;;;;;;;4964823;28;20043;-85
2022/07/17 02:14:12;;;;;;;2.35;1.45;;;;;;;;;;4966610;28;20043;-85
2022/07/17 02:16:38;;;;;;;3.13;1.70;;;;;;;;;;4966519;28;20081;-85
2022/07/17 02:19:03;;;;;;;3.30;1.65;;;;;;;;;;4964168;28;20034;-85
2022/07/17 02:21:29;;;;;;;2.95;1.77;;;;;;;;;;4981050;28;20039;-86
2022/07/17 02:23:54;;;;;;;2.67;1.60;;;;;;;;;;4966424;28;20034;-86
2022/07/17 02:26:19;;;;;;;4.78;1.90;;;;;;;;;;4966748;28;20507;-86
2022/07/17 02:28:45;;;;;;;3.38;2.00;;;;;;;;;;4981778;28;20057;-87
2022/07/17 02:31:10;;;;;;;5.50;1.90;;;;;;;;;;4984038;28;20855;-85
2022/07/17 02:33:35;;;;;;;2.03;1.60;;;;;;;;;;4966102;28;20097;-85
2022/07/17 02:36:01;;;;;;;5.57;1.80;;;;;;;;;;4967020;28;20030;-86
2022/07/17 02:38:27;;;;;;;3.88;1.95;;;;;;;;;;4967428;28;20045;-85
2022/07/17 02:40:52;;;;;;;2.53;1.60;;;;;;;;;;4965647;28;20104;-85
2022/07/17 02:43:17;;;;;;;2.47;1.80;;;;;;;;;;4962830;28;20057;-86
2022/07/17 02:45:43;;;;;;;4.80;1.88;;;;;;;;;;4982523;28;20118;-85
2022/07/17 02:48:08;;;;;;;6.47;1.63;;;;;;;;;;4982489;28;20070;-84
2022/07/17 02:50:34;;;;;;;3.70;1.50;;;;;;;;;;4964951;28;20038;-84
2022/07/17 02:52:59;;;;;;;4.32;1.90;;;;;;;;;;4965950;28;20113;-85
2022/07/17 02:55:25;;;;;;;3.22;1.60;;;;;;;;;;4965587;28;20035;-84
2022/07/17 02:57:50;;;;;;;3.50;1.63;;;;;;;;;;4969528;28;20050;-84
2022/07/17 03:00:17;;;;;;;4.80;1.90;;;;;;;;;;4966924;28;20031;-85
2022/07/17 03:02:43;;;;;;;4.70;2.00;;;;;;;;;;4970044;28;20062;-84
2022/07/17 03:05:09;;;;;;;3.13;1.90;;;;;;;;;;4986329;28;20387;-85
2022/07/17 03:07:35;;;;;;;3.08;1.60;;;;;;;;;;4972029;28;20529;-85
2022/07/17 03:10:01;;;;;;;4.38;1.85;;;;;;;;;;4977954;28;20509;-85
2022/07/17 03:12:26;;;;;;;4.65;1.63;;;;;;;;;;4965885;28;20030;-85
2022/07/17 03:14:51;;;;;;;5.57;1.70;;;;;;;;;;4969505;28;20034;-84
2022/07/17 03:17:17;;;;;;;2.60;1.60;;;;;;;;;;4970660;28;20465;-84
2022/07/17 03:19:42;;;;;;;4.13;1.83;;;;;;;;;;4968541;28;20510;-84
2022/07/17 03:22:07;;;;;;;2.28;1.70;;;;;;;;;;4970010;28;20058;-85
2022/07/17 03:24:33;;;;;;;3.55;1.92;;;;;;;;;;4969042;28;20125;-84
2022/07/17 03:26:59;;;;;;;2.78;1.85;;;;;;;;;;4969640;28;20039;-84
2022/07/17 03:29:24;;;;;;;3.15;1.42;;;;;;;;;;4969421;28;20039;-84
2022/07/17 03:31:49;;;;;;;3.67;1.90;;;;;;;;;;4970099;28;20062;-84
2022/07/17 03:34:15;;;;;;;2.42;1.77;;;;;;;;;;4969298;28;20031;-85
2022/07/17 03:36:40;;;;;;;5.82;1.92;;;;;;;;;;4967740;28;20026;-85
2022/07/17 03:39:06;;;;;;;6.75;2.20;;;;;;;;;;4969159;28;20030;-86
2022/07/17 03:41:32;;;;;;;3.90;1.88;;;;;;;;;;4966596;28;20035;-86
2022/07/17 03:43:57;;;;;;;5.82;2.00;;;;;;;;;;4962922;28;20038;-86
2022/07/17 03:46:23;;;;;;;2.60;1.80;;;;;;;;;;4968443;28;20097;-84
2022/07/17 03:48:48;;;;;;;3.08;2.00;;;;;;;;;;4970381;28;20080;-86
2022/07/17 03:51:13;;;;;;;4.65;2.30;;;;;;;;;;4968323;28;20474;-85
2022/07/17 03:53:39;;;;;;;6.72;1.90;;;;;;;;;;4968680;28;20097;-85
2022/07/17 03:56:04;;;;;;;4.97;1.90;;;;;;;;;;4966784;28;20050;-85
2022/07/17 03:58:30;;;;;;;3.45;2.00;;;;;;;;;;4983114;28;20031;-86
2022/07/17 04:00:56;;;;;;;4.47;1.98;;;;;;;;;;4983403;28;20043;-85
2022/07/17 04:03:21;;;;;;;3.30;1.60;;;;;;;;;;4968695;28;20034;-85
2022/07/17 04:05:46;;;;;;;4.03;2.05;;;;;;;;;;4968979;28;20049;-85
2022/07/17 04:08:12;;;;;;;3.58;2.10;;;;;;;;;;4965036;28;20039;-86
2022/07/17 04:10:38;;;;;;;2.60;1.70;;;;;;;;;;4966799;28;20054;-85
2022/07/17 04:13:04;;;;;;;9.40;2.03;;;;;;;;;;4962102;28;20512;-85
2022/07/17 04:18:13;;;;;;;2.70;1.70;;;;;;;;;;4972444;28;20061;-85
2022/07/17 04:20:38;;;;;;;2.08;1.73;;;;;;;;;;4968104;28;20418;-84
2022/07/17 04:23:05;;;;;;;3.25;1.73;;;;;;;;;;4961802;28;20035;-85
2022/07/17 04:25:30;;;;;;;2.85;1.73;;;;;;;;;;4966558;28;20049;-85
2022/07/17 04:27:56;;;;;;;5.47;2.20;;;;;;;;;;4969497;28;20613;-86
2022/07/17 04:30:21;;;;;;;3.30;1.80;;;;;;;;;;4974057;28;20019;-84
2022/07/17 04:32:46;;;;;;;3.90;1.92;;;;;;;;;;4967151;28;20650;-85
2022/07/17 04:35:12;;;;;;;2.63;1.67;;;;;;;;;;4965606;28;20529;-84
2022/07/17 04:37:37;;;;;;;5.07;1.80;;;;;;;;;;4967823;28;20749;-84
2022/07/17 04:40:03;;;;;;;3.63;1.83;;;;;;;;;;4964467;28;20043;-86
2022/07/17 04:42:28;;;;;;;4.57;2.00;;;;;;;;;;4962199;28;20449;-85
2022/07/17 04:44:53;;;;;;;6.03;1.73;;;;;;;;;;4980639;28;20050;-86
2022/07/17 04:47:19;;;;;;;4.00;2.28;;;;;;;;;;4964324;28;20062;-85
2022/07/17 04:49:44;;;;;;;3.53;1.80;;;;;;;;;;4969217;28;20114;-85
2022/07/17 04:52:09;;;;;;;6.20;2.40;;;;;;;;;;4961243;28;20043;-86
2022/07/17 04:54:35;;;;;;;3.30;1.92;;;;;;;;;;4969529;28;20062;-85
2022/07/17 04:57:00;;;;;;;2.40;1.60;;;;;;;;;;4968238;28;20043;-86
2022/07/17 04:59:25;;;;;;;3.03;1.75;;;;;;;;;;4964205;28;20646;-85
2022/07/17 05:01:51;;;;;;;3.83;2.10;;;;;;;;;;4971784;28;20026;-86
2022/07/17 05:04:16;;;;;;;2.97;1.80;;;;;;;;;;4963770;28;20040;-86
2022/07/17 05:06:42;;;;;;;2.67;1.95;;;;;;;;;;4957957;28;20023;-86
2022/07/17 05:09:07;;;;;;;2.88;2.00;;;;;;;;;;4964547;28;20580;-86
2022/07/17 05:11:32;;;;;;;6.47;2.05;;;;;;;;;;4967442;28;20047;-85
2022/07/17 05:13:58;;;;;;;3.58;2.00;;;;;;;;;;4966929;28;20046;-86
2022/07/17 05:16:23;;;;;;;7.38;2.40;;;;;;;;;;4967116;28;20039;-85
2022/07/17 05:18:48;;;;;;;4.55;2.08;;;;;;;;;;4957135;28;20058;-86
2022/07/17 05:21:14;;;;;;;3.58;2.00;;;;;;;;;;4967512;28;20054;-86
2022/07/17 05:23:39;;;;;;;5.55;2.20;;;;;;;;;;4959608;28;20510;-86
2022/07/17 05:26:05;;;;;;;4.60;2.00;;;;;;;;;;4959659;28;20066;-86
2022/07/17 05:28:30;;;;;;;3.83;1.92;;;;;;;;;;4968423;28;20034;-87
2022/07/17 05:30:56;;;;;;;7.13;2.38;;;;;;;;;;4961493;28;20038;-87
2022/07/17 05:33:21;;;;;;;6.85;2.05;;;;;;;;;;4967968;28;20022;-86
2022/07/17 05:35:46;;;;;;;4.10;1.80;;;;;;;;;;4963463;28;20082;-87
2022/07/17 05:38:12;;;;;;;6.97;2.10;;;;;;;;;;4976484;28;20090;-87
2022/07/17 05:40:37;;;;;;;3.92;2.10;;;;;;;;;;4967936;28;20083;-87
2022/07/17 05:43:03;;;;;;;5.13;2.30;;;;;;;;;;4966663;28;20438;-88
2022/07/17 05:45:28;;;;;;;4.72;2.10;;;;;;;;;;4968625;28;20117;-88
2022/07/17 05:47:53;;;;;;;5.90;1.95;;;;;;;;;;4966245;28;20464;-88
2022/07/17 05:50:19;;;;;;;4.60;2.50;;;;;;;;;;4968873;28;20035;-87
2022/07/17 05:52:44;;;;;;;7.70;2.50;;;;;;;;;;4969463;28;20047;-87
2022/07/17 05:55:10;;;;;;;3.97;1.95;;;;;;;;;;4968532;28;20118;-88
2022/07/17 05:57:35;;;;;;;7.15;2.30;;;;;;;;;;4970839;28;20029;-89
2022/07/17 06:00:01;;;;;;;6.78;2.58;;;;;;;;;;4969117;28;20050;-89
2022/07/17 06:02:26;;;;;;;3.55;1.85;;;;;;;;;;4969650;28;20042;-88
2022/07/17 06:04:52;;;;;;;4.72;2.05;;;;;;;;;;4969654;28;20035;-88
2022/07/17 06:07:17;;;;;;;5.18;2.00;;;;;;;;;;4969119;28;20594;-88
2022/07/17 06:09:42;;;;;;;5.57;2.70;;;;;;;;;;4967989;28;20031;-89
2022/07/17 06:12:08;;;;;;;10.10;2.63;;;;;;;;;;4969228;28;20038;-89
2022/07/17 06:14:33;;;;;;;4.10;2.22;;;;;;;;;;4969286;28;20050;-89
2022/07/17 06:16:58;;;;;;;4.88;2.60;;;;;;;;;;4985270;28;20117;-89
2022/07/17 06:19:24;;;;;;;3.97;1.95;;;;;;;;;;4968560;28;20121;-89
2022/07/17 06:21:49;;;;;;;6.00;2.15;;;;;;;;;;4983351;28;20050;-90
2022/07/17 06:24:14;;;;;;;4.63;2.20;;;;;;;;;;4967656;28;20130;-89
2022/07/17 06:26:40;;;;;;;4.07;2.00;;;;;;;;;;4969695;28;20031;-91
2022/07/17 06:29:05;;;;;;;8.13;2.40;;;;;;;;;;4970632;28;20066;-89
2022/07/17 06:31:30;;;;;;;9.02;2.20;;;;;;;;;;4971214;28;20711;-90
2022/07/17 06:33:56;;;;;;;5.53;2.47;;;;;;;;;;4973064;28;21774;-89
2022/07/17 06:36:21;;;;;;;3.78;2.13;;;;;;;;;;4972846;28;20050;-90
2022/07/17 06:38:46;;;;;;;11.27;2.78;;;;;;;;;;4971203;28;20142;-90
2022/07/17 06:41:12;;;;;;;5.18;2.63;;;;;;;;;;4971464;28;20039;-89
2022/07/17 06:43:37;;;;;;;4.43;2.17;;;;;;;;;;4975335;28;20039;-91
2022/07/17 06:46:03;;;;;;;4.35;2.28;;;;;;;;;;4973919;28;20035;-90
2022/07/17 06:48:28;;;;;;;6.22;2.47;;;;;;;;;;4973932;28;20522;-90
2022/07/17 06:50:53;;;;;;;7.07;2.00;;;;;;;;;;4967809;28;20782;-88
2022/07/17 06:53:19;;;;;;;7.72;2.28;;;;;;;;;;4961435;28;20426;-91
2022/07/17 06:55:44;;;;;;;7.15;2.42;;;;;;;;;;4968663;28;20066;-88
2022/07/17 06:58:10;;;;;;;6.18;2.55;;;;;;;;;;4988730;28;20050;-88
2022/07/17 07:00:35;;;;;;;4.20;2.28;;;;;;;;;;4986248;28;20038;-86
2022/07/17 07:03:01;;;;;;;6.65;1.95;;;;;;;;;;4970952;28;20056;-89
2022/07/17 07:05:26;;;;;;;7.30;2.65;;;;;;;;;;4973655;28;20042;-91
2022/07/17 07:07:51;;;;;;;3.92;2.03;;;;;;;;;;4971714;28;20039;-91
2022/07/17 07:10:17;;;;;;;3.72;2.05;;;;;;;;;;4969011;28;20122;-88
2022/07/17 07:12:42;;;;;;;4.20;1.90;;;;;;;;;;4973480;28;20452;-89
2022/07/17 07:15:09;;;;;;;6.15;2.33;;;;;;;;;;4990734;28;20030;-89
2022/07/17 07:17:35;;;;;;;6.45;2.20;;;;;;;;;;4972494;28;20047;-88
2022/07/17 07:20:03;;;;;;;5.03;2.13;;;;;;;;;;4969556;28;20034;-91
2022/07/17 07:22:29;;;;;;;6.88;2.30;;;;;;;;;;4966930;28;20115;-90
2022/07/17 07:24:54;;;;;;;4.40;2.30;;;;;;;;;;4965909;28;20109;-87
2022/07/17 07:27:19;;;;;;;6.38;2.33;;;;;;;;;;4969783;28;20574;-88
2022/07/17 07:29:45;;;;;;;4.07;2.10;;;;;;;;;;4972672;28;20510;-90
2022/07/17 07:32:10;;;;;;;3.20;1.90;;;;;;;;;;4973736;28;20042;-91
2022/07/17 07:34:36;;;;;;;3.97;2.30;;;;;;;;;;4971109;28;20514;-88
2022/07/17 07:37:01;;;;;;;5.93;2.30;;;;;;;;;;4960900;28;20035;-89
2022/07/17 07:39:26;;;;;;;6.10;2.05;;;;;;;;;;4969839;28;20098;-89
2022/07/17 07:41:52;;;;;;;5.43;1.85;;;;;;;;;;4965759;28;20090;-88
2022/07/17 07:44:18;;;;;;;5.07;2.10;;;;;;;;;;4967732;28;20051;-87
2022/07/17 07:46:43;;;;;;;4.15;1.98;;;;;;;;;;4965417;28;20050;-86
2022/07/17 07:49:10;;;;;;;4.93;1.80;;;;;;;;;;4965575;28;20035;-88
2022/07/17 07:51:35;;;;;;;6.28;1.90;;;;;;;;;;4972037;28;20083;-85
2022/07/17 07:54:01;;;;;;;6.35;2.20;;;;;;;;;;4973418;28;20074;-87
2022/07/17 07:56:26;;;;;;;4.07;1.58;;;;;;;;;;4962858;28;20042;-88
2022/07/17 07:58:51;;;;;;;3.38;1.42;;;;;;;;;;4960346;28;20039;-86
2022/07/17 08:01:17;;;;;;;2.35;1.50;;;;;;;;;;4964534;28;20039;-86
2022/07/17 08:03:42;;;;;;;4.38;1.92;;;;;;;;;;4966967;28;20482;-87
2022/07/17 08:06:07;;;;;;;2.65;1.55;;;;;;;;;;4968294;28;20030;-86
2022/07/17 08:08:33;;;;;;;7.13;1.83;;;;;;;;;;4967772;28;20038;-87
2022/07/17 08:10:58;;;;;;;5.28;1.60;;;;;;;;;;4967836;28;20042;-87
2022/07/17 08:13:24;;;;;;;2.72;1.58;;;;;;;;;;4965731;28;20451;-87
2022/07/17 08:15:49;;;;;;;4.25;1.88;;;;;;;;;;4964475;28;20406;-86
2022/07/17 08:18:15;;;;;;;5.45;1.30;;;;;;;;;;4967535;28;20027;-87
2022/07/17 08:20:40;;;;;;;3.28;1.27;;;;;;;;;;4958753;28;20051;-88
2022/07/17 08:23:05;;;;;;;2.88;1.55;;;;;;;;;;4966898;28;20061;-89
2022/07/17 08:25:32;;;;;;;4.28;1.40;;;;;;;;;;4964982;28;20038;-87
2022/07/17 08:27:57;;;;;;;4.10;1.88;;;;;;;;;;4964650;28;20053;-86
2022/07/17 08:30:22;;;;;;;4.00;1.63;;;;;;;;;;4964177;28;20031;-86
2022/07/17 08:32:48;;;;;;;5.95;1.30;;;;;;;;;;4967251;28;20041;-86
2022/07/17 08:35:13;;;;;;;3.65;1.30;;;;;;;;;;4964662;28;20391;-86
2022/07/17 08:37:47;;;;;;;2.80;1.52;;;;;;;;;;4966568;28;20422;-87
2022/07/17 08:40:17;;;;;;;3.47;1.60;;;;;;;;;;4962364;28;20047;-86
2022/07/17 08:42:43;;;;;;;3.33;1.25;;;;;;;;;;4967516;28;20106;-88
2022/07/17 08:45:10;;;;;;;3.55;1.30;;;;;;;;;;4967293;28;21016;-89
2022/07/17 08:47:37;;;;;;;5.38;1.48;;;;;;;;;;4968763;28;20053;-86
2022/07/17 08:50:03;;;;;;;2.38;1.30;;;;;;;;;;4964079;28;20034;-87
2022/07/17 08:52:29;;;;;;;2.03;1.17;;;;;;;;;;4975702;28;20122;-88
2022/07/17 08:54:54;;;;;;;2.45;1.50;;;;;;;;;;4968151;28;20122;-88
2022/07/17 08:57:20;;;;;;;2.95;1.60;;;;;;;;;;4966796;28;20030;-86
2022/07/17 08:59:47;;;;;;;2.90;1.27;;;;;;;;;;4970961;28;20038;-86
2022/07/17 09:02:13;;;;;;;2.85;1.30;;;;;;;;;;4967007;28;20429;-87
2022/07/17 09:04:39;;;;;;;4.57;1.40;;;;;;;;;;4964015;28;20027;-87
2022/07/17 09:07:05;;;;;;;4.13;1.50;;;;;;;;;;4965821;28;20046;-86
2022/07/17 09:09:33;;;;;;;2.17;1.30;;;;;;;;;;4961347;28;20034;-85
2022/07/17 09:11:59;;;;;;;2.22;1.40;;;;;;;;;;4964632;28;20051;-90
2022/07/17 09:14:38;;;;;;;2.17;1.38;;;;;;;;;;4956472;28;20534;-86
2022/07/17 09:17:05;;;;;;;4.75;1.52;;;;;;;;;;4959608;28;20085;-83
2022/07/17 09:19:33;;;;;;;2.70;1.40;;;;;;;;;;4960237;28;20074;-86
2022/07/17 09:22:14;;;;;;;6.05;1.45;;;;;;;;;;4964346;28;20049;-85
2022/07/17 09:24:55;;;;;;;3.67;1.42;;;;;;;;;;4962384;28;20078;-87
2022/07/17 09:27:23;;;;;;;3.97;1.65;;;;;;;;;;4964740;28;20026;-87
2022/07/17 09:29:52;;;;;;;2.53;1.42;;;;;;;;;;4979194;28;20038;-88
2022/07/17 09:32:19;;;;;;;2.38;1.50;;;;;;;;;;4968918;28;20510;-89
2022/07/17 09:34:46;;;;;;;3.17;1.55;;;;;;;;;;4967206;28;20321;-89
2022/07/17 09:37:12;;;;;;;4.13;1.70;;;;;;;;;;4981959;28;20174;-88
2022/07/17 09:39:39;;;;;;;8.73;1.88;;;;;;;;;;4966408;28;20059;-90
2022/07/17 09:42:05;;;;;;;3.85;1.60;;;;;;;;;;4967657;28;20026;-89
2022/07/17 09:44:31;;;;;;;6.15;1.40;;;;;;;;;;4966909;28;20066;-88
2022/07/17 09:46:56;;;;;;;3.80;1.63;;;;;;;;;;4967424;28;20035;-89
2022/07/17 09:49:26;;;;;;;5.88;1.50;;;;;;;;;;4967672;28;20043;-87
2022/07/17 09:51:52;;;;;;;3.45;1.58;;;;;;;;;;4965051;28;20623;-89
2022/07/17 09:54:21;;;;;;;3.90;1.63;;;;;;;;;;4968496;28;20398;-87
2022/07/17 09:56:50;;;;;;;4.75;1.67;;;;;;;;;;4963424;28;20054;-89
2022/07/17 09:59:17;;;;;;;4.75;1.83;;;;;;;;;;4989619;28;20074;-89
2022/07/17 10:01:44;;;;;;;4.88;1.73;;;;;;;;;;4997452;28;20046;-89
2022/07/17 10:04:11;;;;;;;4.32;1.65;;;;;;;;;;4992306;28;20045;-88
2022/07/17 10:06:36;;;;;;;2.75;1.75;;;;;;;;;;4979496;28;20057;-84
2022/07/17 10:09:04;;;;;;;3.15;1.90;;;;;;;;;;4965777;28;20406;-86
2022/07/17 10:11:33;;;;;;;4.85;1.98;;;;;;;;;;4966567;28;20038;-85
2022/07/17 10:14:12;;;;;;;3.90;1.77;;;;;;;;;;4963881;28;20035;-85
2022/07/17 10:16:40;;;;;;;4.32;1.65;;;;;;;;;;4965004;28;20054;-86
2022/07/17 10:19:22;;;;;;;3.15;2.00;;;;;;;;;;4964207;28;20113;-86
2022/07/17 10:21:57;;;;;;;3.22;2.05;;;;;;;;;;4960971;28;20035;-86
2022/07/17 10:24:24;;;;;;;3.50;1.77;;;;;;;;;;4964192;28;20097;-87
2022/07/17 10:26:50;;;;;;;2.70;1.65;;;;;;;;;;4962800;28;20063;-87
2022/07/17 10:30:04;;;;;;;5.57;2.10;;;;;;;;;;4961422;28;20054;-86
2022/07/17 10:32:30;;;;;;;7.93;1.85;;;;;;;;;;4907779;29;20055;-87
2022/07/17 10:35:01;;;;;;;5.75;1.90;;;;;;;;;;4961085;28;20031;-87
2022/07/17 10:37:51;;;;;;;3.85;1.92;;;;;;;;;;4963201;28;20053;-88
2022/07/17 10:40:20;;;;;;;4.53;1.77;;;;;;;;;;4982879;28;20031;-88
2022/07/17 10:42:51;;;;;;;10.23;1.92;;;;;;;;;;4967027;28;20031;-87
2022/07/17 10:45:18;;;;;;;3.17;1.70;;;;;;;;;;4969008;28;20041;-88
2022/07/17 10:47:50;;;;;;;4.93;2.20;;;;;;;;;;4982747;28;20046;-87
2022/07/17 10:50:19;;;;;;;2.78;1.92;;;;;;;;;;4968812;28;20065;-87
2022/07/17 10:52:55;;;;;;;3.40;1.88;;;;;;;;;;4966654;28;20039;-85
2022/07/17 10:55:21;;;;;;;4.82;2.22;;;;;;;;;;4966147;28;20047;-85
2022/07/17 10:57:48;;;;;;;4.07;2.45;;;;;;;;;;4965225;28;20117;-87
2022/07/17 11:00:15;;;;;;;3.13;1.88;;;;;;;;;;4967992;28;20030;-86
2022/07/17 11:02:42;;;;;;;5.88;2.53;;;;;;;;;;4982861;28;20502;-87
2022/07/17 11:05:12;;;;;;;2.97;1.85;;;;;;;;;;4966390;28;20113;-85
2022/07/17 11:07:59;;;;;;;3.80;1.95;;;;;;;;;;4968209;28;20039;-88
2022/07/17 11:10:27;;;;;;;4.65;2.22;;;;;;;;;;4962178;28;20038;-87
2022/07/17 11:13:08;;;;;;;3.78;2.22;;;;;;;;;;4967390;28;20149;-84
2022/07/17 11:15:48;;;;;;;5.55;2.05;;;;;;;;;;4961770;28;20037;-88
2022/07/17 11:18:19;;;;;;;5.38;2.17;;;;;;;;;;4970507;28;20049;-86
2022/07/17 11:20:52;;;;;;;3.33;2.00;;;;;;;;;;4968836;28;20051;-86
2022/07/17 11:23:18;;;;;;;3.55;1.90;;;;;;;;;;4982253;28;20035;-88
2022/07/17 11:26:00;;;;;;;3.78;2.08;;;;;;;;;;4970267;28;20106;-88
2022/07/17 11:28:31;;;;;;;4.60;2.22;;;;;;;;;;4976623;28;20587;-87
2022/07/17 11:30:56;;;;;;;4.07;1.63;;;;;;;;;;4969022;28;20153;-87
2022/07/17 11:33:22;;;;;;;4.43;1.98;;;;;;;;;;4969798;28;20420;-86
2022/07/17 11:35:47;;;;;;;3.22;2.00;;;;;;;;;;4971277;28;20034;-88
2022/07/17 11:38:13;;;;;;;4.30;2.00;;;;;;;;;;4968843;28;20201;-87
2022/07/17 11:40:48;;;;;;;3.90;2.00;;;;;;;;;;4964994;28;20475;-89
2022/07/17 11:43:14;;;;;;;4.22;2.42;;;;;;;;;;4964980;28;20035;-87
2022/07/17 11:45:41;;;;;;;3.10;1.90;;;;;;;;;;4970305;28;20018;-87
2022/07/17 11:48:06;;;;;;;5.20;2.08;;;;;;;;;;4968415;28;20109;-87
2022/07/17 11:50:32;;;;;;;4.53;1.88;;;;;;;;;;4971518;28;20158;-89
2022/07/17 11:53:02;;;;;;;3.05;1.80;;;;;;;;;;4968877;28;20123;-88
2022/07/17 11:55:41;;;;;;;4.93;1.92;;;;;;;;;;4971147;28;20062;-88
2022/07/17 11:58:07;;;;;;;3.60;2.15;;;;;;;;;;4985443;28;20438;-89
2022/07/17 12:00:33;;;;;;;2.60;1.92;;;;;;;;;;4971931;28;20023;-89
2022/07/17 12:03:06;;;;;;;4.35;2.30;;;;;;;;;;4970460;28;20038;-87
2022/07/17 12:05:34;;;;;;;4.97;2.20;;;;;;;;;;4960557;28;20125;-87
2022/07/17 12:08:00;;;;;;;3.20;1.92;;;;;;;;;;4969320;28;20039;-89
2022/07/17 12:10:29;;;;;;;4.50;1.88;;;;;;;;;;4969936;28;20034;-86
2022/07/17 12:13:00;;;;;;;2.78;1.85;;;;;;;;;;4969262;28;20494;-87
2022/07/17 12:15:39;;;;;;;2.90;2.00;;;;;;;;;;4979520;28;20413;-89
2022/07/17 12:18:06;;;;;;;3.63;1.70;;;;;;;;;;4964353;28;20038;-88
2022/07/17 12:20:47;;;;;;;2.97;1.77;;;;;;;;;;4971252;28;20034;-87
2022/07/17 12:23:36;;;;;;;2.53;1.80;;;;;;;;;;4966197;28;20043;-87
2022/07/17 12:26:09;;;;;;;4.78;2.10;;;;;;;;;;4970352;28;20035;-88
2022/07/17 12:28:35;;;;;;;2.50;1.67;;;;;;;;;;4969971;28;20521;-87
2022/07/17 12:31:01;;;;;;;3.85;1.90;;;;;;;;;;4971114;28;20101;-87
2022/07/17 12:33:27;;;;;;;3.97;2.10;;;;;;;;;;4968847;28;20413;-86
2022/07/17 12:35:52;;;;;;;7.18;1.83;;;;;;;;;;4964073;28;20523;-89
2022/07/17 12:38:18;;;;;;;4.43;2.17;;;;;;;;;;4969448;28;20046;-87
2022/07/17 12:40:43;;;;;;;2.30;1.65;;;;;;;;;;4967622;28;20126;-87
2022/07/17 12:43:08;;;;;;;2.72;1.80;;;;;;;;;;4961634;28;20073;-88
2022/07/17 12:45:34;;;;;;;3.22;2.00;;;;;;;;;;4970659;28;20468;-87
2022/07/17 12:48:00;;;;;;;3.45;1.80;;;;;;;;;;4968521;28;20042;-87
2022/07/17 12:50:25;;;;;;;4.70;2.10;;;;;;;;;;4969796;28;20865;-87
2022/07/17 12:52:51;;;;;;;3.50;2.13;;;;;;;;;;4967285;28;20647;-88
2022/07/17 12:55:16;;;;;;;4.32;1.90;;;;;;;;;;4968867;28;20058;-88
2022/07/17 12:57:41;;;;;;;6.40;3.42;;;;;;;;;;4979230;28;20026;-88
2022/07/17 13:00:08;;;;;;;3.17;2.00;;;;;;;;;;4969409;28;20031;-85
2022/07/17 13:02:33;;;;;;;3.42;1.98;;;;;;;;;;4969335;28;20046;-87
2022/07/17 13:04:58;;;;;;;3.97;2.05;;;;;;;;;;4983116;28;20043;-86
2022/07/17 13:07:24;;;;;;;3.60;2.08;;;;;;;;;;4969408;28;20605;-87
2022/07/17 13:09:49;;;;;;;3.63;2.15;;;;;;;;;;4967731;28;20023;-87
2022/07/17 13:12:14;;;;;;;3.47;2.22;;;;;;;;;;4971726;28;20031;-88
2022/07/17 13:14:40;;;;;;;3.13;1.95;;;;;;;;;;4972854;28;20133;-88
2022/07/17 13:17:06;;;;;;;4.50;2.00;;;;;;;;;;4969269;28;20125;-88
2022/07/17 13:19:31;;;;;;;3.28;1.70;;;;;;;;;;4969607;28;20034;-87
2022/07/17 13:21:56;;;;;;;4.03;2.30;;;;;;;;;;4964007;28;20043;-88
2022/07/17 13:24:22;;;;;;;3.50;2.20;;;;;;;;;;4965182;28;20031;-89
2022/07/17 13:26:47;;;;;;;3.97;2.10;;;;;;;;;;4969907;28;20049;-89
2022/07/17 13:29:13;;;;;;;3.53;1.98;;;;;;;;;;4974008;28;20049;-88
2022/07/17 13:31:39;;;;;;;5.60;1.80;;;;;;;;;;4969363;28;20042;-86
2022/07/17 13:34:04;;;;;;;4.07;2.65;;;;;;;;;;4968065;28;20188;-88
2022/07/17 13:36:30;;;;;;;5.90;2.08;;;;;;;;;;4967843;28;20034;-89
2022/07/17 13:38:55;;;;;;;2.50;1.85;;;;;;;;;;4970174;28;20046;-87
2022/07/17 13:41:22;;;;;;;2.95;2.00;;;;;;;;;;4952750;28;20069;-88
2022/07/17 13:43:47;;;;;;;4.85;2.33;;;;;;;;;;4968574;28;20178;-86
2022/07/17 13:46:13;;;;;;;2.50;2.03;;;;;;;;;;4968313;28;20131;-86
2022/07/17 13:48:39;;;;;;;2.72;2.03;;;;;;;;;;4970180;28;20117;-88
2022/07/17 13:51:05;;;;;;;3.08;2.05;;;;;;;;;;4984158;28;20126;-88
2022/07/17 13:53:31;;;;;;;3.17;2.20;;;;;;;;;;4968043;28;20047;-89
2022/07/17 13:55:57;;;;;;;3.85;2.20;;;;;;;;;;4966287;28;20034;-87
2022/07/17 13:58:22;;;;;;;3.42;1.98;;;;;;;;;;4983042;28;20054;-87
2022/07/17 14:00:47;;;;;;;3.65;1.98;;;;;;;;;;4968479;28;20117;-87
2022/07/17 14:03:13;;;;;;;3.03;1.77;;;;;;;;;;4970376;28;20058;-85
2022/07/17 14:05:38;;;;;;;4.00;1.90;;;;;;;;;;4992712;28;20042;-88
2022/07/17 14:08:04;;;;;;;4.22;1.90;;;;;;;;;;4991361;28;20196;-87
2022/07/17 14:10:29;;;;;;;3.58;1.92;;;;;;;;;;4980042;28;20031;-86
2022/07/17 14:12:54;;;;;;;2.88;1.60;;;;;;;;;;4971808;28;20027;-88
2022/07/17 14:15:20;;;;;;;3.17;1.77;;;;;;;;;;4966649;28;20026;-85
2022/07/17 14:17:45;;;;;;;2.90;1.90;;;;;;;;;;4968091;28;20035;-88
2022/07/17 14:20:11;;;;;;;3.50;1.77;;;;;;;;;;4963474;28;20035;-86
2022/07/17 14:22:37;;;;;;;3.83;2.00;;;;;;;;;;4966013;28;20043;-86
2022/07/17 14:25:02;;;;;;;3.15;1.90;;;;;;;;;;4966642;28;20433;-88
2022/07/17 14:27:27;;;;;;;2.78;2.00;;;;;;;;;;4965313;28;20042;-89
2022/07/17 14:29:53;;;;;;;4.40;2.00;;;;;;;;;;4968712;28;20109;-88
2022/07/17 14:32:18;;;;;;;3.88;2.13;;;;;;;;;;4966154;28;20067;-88
2022/07/17 14:34:44;;;;;;;3.25;2.05;;;;;;;;;;4976914;28;20046;-88
2022/07/17 14:37:09;;;;;;;2.53;2.00;;;;;;;;;;4981165;28;20047;-87
2022/07/17 14:39:35;;;;;;;2.80;1.90;;;;;;;;;;4978643;28;20022;-87
2022/07/17 14:42:01;;;;;;;3.63;2.25;;;;;;;;;;4965383;28;20035;-90